createdAt,value
2022-12-26T00:02:22.912Z,18.20
2022-12-26T00:07:26.492Z,17.17
2022-12-26T00:12:30.053Z,18.40
2022-12-26T00:17:34.967Z,18.42
2022-12-26T00:22:38.534Z,17.15
2022-12-26T00:27:42.445Z,20.30
2022-12-26T00:32:47.315Z,17.70
2022-12-26T00:37:50.849Z,20.25
2022-12-26T00:42:55.445Z,20.52
2022-12-26T00:48:00.415Z,20.05
2022-12-26T00:53:04.008Z,20.85
2022-12-26T00:58:07.594Z,21.40
2022-12-26T01:03:13.446Z,21.42
2022-12-26T01:08:19.531Z,24.05
2022-12-26T01:13:27.471Z,24.73
2022-12-26T01:18:32.793Z,22.10
2022-12-26T01:23:36.716Z,22.05
2022-12-26T01:28:40.188Z,20.30
2022-12-26T01:33:45.164Z,20.38
2022-12-26T01:38:49.030Z,20.33
2022-12-26T01:43:56.066Z,20.63
2022-12-26T01:49:07.604Z,19.92
2022-12-26T01:54:40.535Z,19.95
2022-12-26T01:59:41.594Z,19.83
2022-12-26T02:05:09.283Z,20.25
2022-12-26T02:10:18.196Z,21.55
2022-12-26T02:15:21.952Z,21.70
2022-12-26T02:20:29.530Z,21.85
2022-12-26T02:26:05.273Z,24.23
2022-12-26T02:31:15.234Z,25.85
2022-12-26T02:36:30.782Z,24.95
2022-12-26T02:41:45.407Z,25.58
2022-12-26T02:47:06.460Z,25.77
2022-12-26T02:52:37.346Z,26.90
2022-12-26T02:58:06.791Z,25.27
2022-12-26T03:03:33.461Z,22.60
2022-12-26T03:09:00.274Z,25.10
2022-12-26T03:14:14.860Z,25.42
2022-12-26T03:19:22.673Z,23.92
2022-12-26T03:24:47.613Z,25.55
2022-12-26T03:30:20.354Z,23.98
2022-12-26T03:35:26.973Z,24.20
2022-12-26T03:41:07.914Z,25.30
2022-12-26T03:46:36.469Z,25.75
2022-12-26T03:52:05.681Z,28.80
2022-12-26T03:57:32.708Z,31.13
2022-12-26T04:02:57.967Z,30.88
2022-12-26T04:08:26.085Z,30.27
2022-12-26T04:13:55.436Z,32.28
2022-12-26T04:19:27.996Z,29.30
2022-12-26T04:24:55.932Z,32.03
2022-12-26T04:30:16.673Z,30.23
2022-12-26T04:35:44.121Z,30.25
2022-12-26T04:41:09.624Z,28.48
2022-12-26T04:46:15.173Z,28.35
2022-12-26T04:51:18.838Z,26.60
2022-12-26T04:56:23.819Z,26.83
2022-12-26T05:01:45.067Z,25.35
2022-12-26T05:07:06.363Z,23.88
2022-12-26T05:17:33.167Z,20.77
2022-12-26T05:22:57.210Z,18.77
2022-12-26T05:28:19.402Z,18.98
2022-12-26T05:33:40.912Z,15.95
2022-12-26T05:38:44.558Z,14.98
2022-12-26T05:43:49.618Z,12.85
2022-12-26T05:48:53.363Z,11.68
2022-12-26T05:53:56.961Z,10.30
2022-12-26T05:59:02.432Z,8.20
2022-12-26T06:04:05.963Z,9.25
2022-12-26T06:09:09.511Z,7.72
2022-12-26T06:14:14.458Z,8.50
2022-12-26T06:19:18.179Z,7.65
2022-12-26T06:24:21.751Z,8.63
2022-12-26T06:29:26.927Z,8.95
2022-12-26T06:34:30.639Z,8.27
2022-12-26T06:39:34.254Z,8.20
2022-12-26T06:44:39.230Z,8.73
2022-12-26T06:49:42.936Z,8.50
2022-12-26T06:54:46.532Z,8.32
2022-12-26T06:59:51.536Z,8.93
2022-12-26T07:04:55.177Z,8.98
2022-12-26T07:09:58.648Z,9.32
2022-12-26T07:15:03.658Z,9.45
2022-12-26T07:20:08.937Z,9.75
2022-12-26T07:25:12.507Z,10.10
2022-12-26T07:30:17.662Z,10.25
2022-12-26T07:35:21.408Z,9.52
2022-12-26T07:40:25.046Z,9.25
2022-12-26T07:45:30.089Z,9.43
2022-12-26T07:50:33.712Z,9.18
2022-12-26T07:55:37.333Z,9.07
2022-12-26T08:00:42.274Z,8.50
2022-12-26T08:05:46.171Z,7.40
2022-12-26T08:10:49.733Z,7.63
2022-12-26T08:15:54.722Z,6.88
2022-12-26T08:20:59.601Z,6.45
2022-12-26T08:26:06.736Z,7.05
2022-12-26T08:31:14.747Z,6.35
2022-12-26T08:36:19.210Z,6.32
2022-12-26T08:41:23.063Z,5.82
2022-12-26T08:46:28.113Z,5.85
2022-12-26T08:51:31.969Z,5.50
2022-12-26T08:56:35.573Z,5.30
2022-12-26T09:01:42.061Z,4.55
2022-12-26T09:06:45.979Z,4.63
2022-12-26T09:11:49.578Z,4.40
2022-12-26T09:16:54.763Z,3.83
2022-12-26T09:22:12.497Z,4.10
2022-12-26T09:27:16.395Z,3.80
2022-12-26T09:32:21.811Z,3.75
2022-12-26T09:37:25.693Z,2.75
2022-12-26T09:42:40.628Z,3.20
2022-12-26T09:47:54.654Z,3.10
2022-12-26T09:53:00.279Z,3.00
2022-12-26T09:58:13.254Z,3.47
2022-12-26T10:03:18.616Z,3.00
2022-12-26T10:08:28.835Z,2.97
2022-12-26T10:13:40.226Z,3.03
2022-12-26T10:18:58.285Z,3.70
2022-12-26T10:24:08.478Z,2.97
2022-12-26T10:29:22.108Z,1.77
2022-12-26T10:34:31.208Z,3.17
2022-12-26T10:39:41.182Z,3.33
2022-12-26T10:44:45.117Z,2.05
2022-12-26T10:49:50.470Z,3.22
2022-12-26T10:55:28.178Z,3.42
2022-12-26T11:00:24.206Z,3.75
2022-12-26T11:11:04.289Z,2.50
2022-12-26T11:16:09.095Z,2.95
2022-12-26T11:21:23.450Z,2.85
2022-12-26T11:26:29.722Z,2.13
2022-12-26T11:31:33.590Z,2.17
2022-12-26T11:36:46.529Z,2.97
2022-12-26T11:41:50.818Z,2.15
2022-12-26T11:46:58.753Z,1.63
2022-12-26T11:52:25.051Z,2.13
2022-12-26T11:57:30.703Z,1.45
2022-12-26T12:02:36.257Z,1.70
2022-12-26T12:08:05.073Z,1.40
2022-12-26T12:13:16.478Z,1.25
2022-12-26T12:18:27.941Z,1.27
2022-12-26T12:23:48.537Z,1.08
2022-12-26T12:29:22.500Z,1.25
2022-12-26T12:34:38.838Z,1.17
2022-12-26T12:39:56.090Z,1.30
2022-12-26T12:45:18.404Z,0.90
2022-12-26T12:50:30.117Z,1.02
2022-12-26T12:55:49.330Z,1.00
2022-12-26T13:00:57.520Z,1.38
2022-12-26T13:06:07.954Z,1.35
2022-12-26T13:11:20.625Z,1.50
2022-12-26T13:16:29.941Z,1.38
2022-12-26T13:21:37.787Z,1.80
2022-12-26T13:26:46.959Z,1.70
2022-12-26T13:31:52.265Z,1.75
2022-12-26T13:37:00.839Z,1.50
2022-12-26T13:42:50.402Z,1.40
2022-12-26T13:47:53.944Z,1.75
2022-12-26T13:52:57.864Z,1.05
2022-12-26T13:58:37.102Z,1.67
2022-12-26T14:03:55.729Z,2.10
2022-12-26T14:09:21.766Z,1.25
2022-12-26T14:14:38.291Z,1.13
2022-12-26T14:19:51.997Z,1.45
2022-12-26T14:25:06.618Z,3.72
2022-12-26T14:30:25.935Z,1.20
2022-12-26T14:35:35.106Z,1.30
2022-12-26T14:40:40.286Z,4.55
2022-12-26T14:45:49.763Z,1.52
2022-12-26T14:50:55.083Z,1.35
2022-12-26T14:56:00.640Z,1.35
2022-12-26T15:02:01.011Z,1.45
2022-12-26T15:07:30.320Z,0.90
2022-12-26T15:13:12.129Z,0.98
2022-12-26T15:18:59.609Z,1.05
2022-12-26T15:25:18.194Z,1.90
2022-12-26T15:30:20.638Z,1.45
2022-12-26T15:35:33.716Z,2.88
2022-12-26T15:40:43.773Z,1.58
2022-12-26T15:45:51.985Z,1.35
2022-12-26T15:51:02.613Z,1.15
2022-12-26T15:56:39.038Z,1.33
2022-12-26T16:01:44.425Z,1.60
2022-12-26T16:07:07.588Z,2.38
2022-12-26T16:12:27.173Z,1.40
2022-12-26T16:17:31.409Z,1.15
2022-12-26T16:22:46.975Z,1.23
2022-12-26T16:27:54.792Z,1.63
2022-12-26T16:33:00.232Z,1.33
2022-12-26T16:38:07.698Z,1.73
2022-12-26T16:43:25.996Z,1.42
2022-12-26T16:48:31.911Z,1.40
2022-12-26T16:53:46.071Z,2.42
2022-12-26T16:58:51.175Z,1.50
2022-12-26T17:03:59.522Z,1.83
2022-12-26T17:09:09.639Z,1.92
2022-12-26T17:14:20.526Z,1.55
2022-12-26T17:19:29.249Z,2.08
2022-12-26T17:24:34.142Z,2.63
2022-12-26T17:29:50.141Z,2.35
2022-12-26T17:34:53.683Z,1.75
2022-12-26T17:40:05.937Z,2.10
2022-12-26T17:45:15.447Z,1.63
2022-12-26T17:50:19.013Z,1.98
2022-12-26T17:55:26.705Z,2.10
2022-12-26T18:00:31.003Z,2.20
2022-12-26T18:05:35.429Z,2.00
2022-12-26T18:10:40.315Z,2.17
2022-12-26T18:15:44.103Z,1.90
2022-12-26T18:20:47.663Z,2.13
2022-12-26T18:25:54.763Z,1.95
2022-12-26T18:30:58.598Z,2.47
2022-12-26T18:36:07.421Z,2.83
2022-12-26T18:41:15.674Z,2.47
2022-12-26T18:46:21.888Z,3.70
2022-12-26T18:51:28.052Z,3.15
2022-12-26T18:56:33.058Z,2.42
2022-12-26T19:01:36.815Z,3.10
2022-12-26T19:06:40.805Z,3.03
2022-12-26T19:11:45.978Z,2.97
2022-12-26T19:16:49.891Z,3.05
2022-12-26T19:21:53.705Z,2.88
2022-12-26T19:26:58.823Z,2.45
2022-12-26T19:32:02.716Z,3.08
2022-12-26T19:37:06.493Z,2.80
2022-12-26T19:42:11.465Z,2.70
2022-12-26T19:47:15.354Z,2.70
2022-12-26T19:52:19.629Z,1.98
2022-12-26T19:57:25.033Z,3.15
2022-12-26T20:02:29.161Z,2.63
2022-12-26T20:07:33.186Z,2.58
2022-12-26T20:12:38.217Z,2.28
2022-12-26T20:17:42.160Z,2.22
2022-12-26T20:22:51.218Z,2.63
2022-12-26T20:27:58.141Z,3.55
2022-12-26T20:33:01.852Z,2.40
2022-12-26T20:38:05.908Z,2.88
2022-12-26T20:43:11.002Z,3.30
2022-12-26T20:48:14.785Z,3.33
2022-12-26T20:53:18.669Z,3.00
2022-12-26T20:58:25.596Z,3.17
2022-12-26T21:03:30.282Z,2.80
2022-12-26T21:08:34.059Z,3.78
2022-12-26T21:13:40.294Z,2.40
2022-12-26T21:18:44.569Z,3.17
2022-12-26T21:23:49.469Z,3.35
2022-12-26T21:28:58.551Z,3.42
2022-12-26T21:34:03.965Z,3.58
2022-12-26T21:39:09.114Z,3.25
2022-12-26T21:44:14.379Z,3.63
2022-12-26T21:49:18.065Z,3.22
2022-12-26T21:54:43.439Z,3.33
2022-12-26T21:59:59.907Z,2.80
2022-12-26T22:05:07.614Z,3.53
2022-12-26T22:10:32.505Z,3.58
2022-12-26T22:16:00.522Z,4.00
2022-12-26T22:21:10.876Z,4.18
2022-12-26T22:26:17.139Z,3.45
2022-12-26T22:31:24.907Z,4.38
2022-12-26T22:36:29.818Z,4.75
2022-12-26T22:41:34.273Z,4.00
2022-12-26T22:46:39.386Z,3.78
2022-12-26T22:51:43.133Z,3.72
2022-12-26T22:56:46.679Z,3.60
2022-12-26T23:01:51.690Z,4.15
2022-12-26T23:06:55.814Z,3.90
2022-12-26T23:12:13.821Z,3.67
2022-12-26T23:17:39.062Z,4.50
2022-12-26T23:22:43.052Z,3.72
2022-12-26T23:28:03.974Z,4.28
2022-12-26T23:33:08.927Z,3.65
2022-12-26T23:38:12.596Z,3.83
2022-12-26T23:43:16.163Z,3.75
2022-12-26T23:48:21.127Z,4.40
2022-12-26T23:53:24.673Z,3.88
2022-12-26T23:58:28.218Z,4.40
